createdAt,value
2023-04-21T00:01:39.485Z,100.00
2023-04-21T00:04:08.307Z,100.00
2023-04-21T00:06:36.708Z,100.00
2023-04-21T00:09:05.546Z,100.00
2023-04-21T00:11:33.535Z,100.00
2023-04-21T00:14:01.329Z,100.00
2023-04-21T00:16:30.644Z,100.00
2023-04-21T00:18:58.506Z,100.00
2023-04-21T00:21:26.845Z,100.00
2023-04-21T00:23:54.705Z,100.00
2023-04-21T00:26:22.597Z,100.00
2023-04-21T00:28:50.353Z,100.00
2023-04-21T00:31:18.226Z,100.00
2023-04-21T00:33:47.322Z,100.00
2023-04-21T00:36:15.103Z,100.00
2023-04-21T00:38:42.969Z,100.00
2023-04-21T00:41:10.798Z,100.00
2023-04-21T00:43:38.563Z,100.00
2023-04-21T00:46:06.435Z,100.00
2023-04-21T00:48:34.175Z,100.00
2023-04-21T00:51:03.324Z,100.00
2023-04-21T00:53:31.310Z,100.00
2023-04-21T00:55:59.084Z,100.00
2023-04-21T00:58:26.862Z,100.00
2023-04-21T01:00:54.724Z,100.00
2023-04-21T01:03:22.768Z,100.00
2023-04-21T01:05:50.670Z,100.00
2023-04-21T01:08:19.831Z,100.00
2023-04-21T01:10:47.576Z,100.00
2023-04-21T01:13:15.366Z,100.00
2023-04-21T01:15:43.186Z,100.00
2023-04-21T01:18:11.802Z,100.00
2023-04-21T01:20:40.068Z,100.00
2023-04-21T01:23:09.227Z,100.00
2023-04-21T01:25:37.059Z,100.00
2023-04-21T01:28:05.070Z,100.00
2023-04-21T01:30:32.966Z,100.00
2023-04-21T01:33:01.250Z,100.00
2023-04-21T01:35:29.248Z,100.00
2023-04-21T01:37:57.138Z,100.00
2023-04-21T01:40:26.266Z,100.00
2023-04-21T01:42:54.032Z,100.00
2023-04-21T01:45:21.864Z,100.00
2023-04-21T01:47:49.737Z,100.00
2023-04-21T01:50:18.223Z,100.00
2023-04-21T01:52:46.037Z,100.00
2023-04-21T01:55:14.829Z,100.00
2023-04-21T01:57:43.954Z,100.00
2023-04-21T02:00:13.060Z,100.00
2023-04-21T02:02:40.966Z,100.00
2023-04-21T02:05:09.330Z,100.00
2023-04-21T02:07:37.118Z,100.00
2023-04-21T02:10:05.297Z,100.00
2023-04-21T02:12:33.060Z,100.00
2023-04-21T02:15:02.306Z,100.00
2023-04-21T02:17:30.291Z,100.00
2023-04-21T02:19:58.530Z,100.00
2023-04-21T02:22:26.334Z,100.00
2023-04-21T02:24:54.098Z,100.00
2023-04-21T02:27:21.887Z,100.00
2023-04-21T02:29:49.668Z,100.00
2023-04-21T02:32:25.626Z,100.00
2023-04-21T02:34:54.019Z,100.00
2023-04-21T02:37:22.000Z,100.00
2023-04-21T02:39:49.789Z,100.00
2023-04-21T02:42:17.605Z,100.00
2023-04-21T02:44:45.437Z,100.00
2023-04-21T02:47:13.211Z,100.00
2023-04-21T02:49:43.402Z,100.00
2023-04-21T02:52:11.199Z,100.00
2023-04-21T02:54:38.951Z,100.00
2023-04-21T02:57:06.773Z,100.00
2023-04-21T02:59:34.639Z,100.00
2023-04-21T03:02:02.436Z,100.00
2023-04-21T03:04:32.555Z,100.00
2023-04-21T03:07:01.799Z,100.00
2023-04-21T03:09:29.596Z,100.00
2023-04-21T03:11:57.633Z,100.00
2023-04-21T03:14:25.450Z,100.00
2023-04-21T03:16:53.347Z,100.00
2023-04-21T03:19:21.506Z,100.00
2023-04-21T03:21:49.498Z,100.00
2023-04-21T03:24:19.403Z,100.00
2023-04-21T03:26:47.267Z,100.00
2023-04-21T03:29:15.235Z,100.00
2023-04-21T03:31:43.031Z,100.00
2023-04-21T03:34:10.986Z,100.00
2023-04-21T03:36:38.728Z,100.00
2023-04-21T03:39:19.080Z,100.00
2023-04-21T03:41:49.146Z,100.00
2023-04-21T03:44:17.042Z,100.00
2023-04-21T03:46:44.815Z,100.00
2023-04-21T03:49:12.629Z,100.00
2023-04-21T03:51:40.521Z,100.00
2023-04-21T03:54:08.467Z,100.00
2023-04-21T03:56:36.602Z,100.00
2023-04-21T03:59:06.101Z,100.00
2023-04-21T04:01:34.988Z,100.00
2023-04-21T04:04:03.032Z,100.00
2023-04-21T04:06:32.154Z,100.00
2023-04-21T04:09:02.495Z,100.00
2023-04-21T04:11:30.379Z,100.00
2023-04-21T04:13:58.569Z,100.00
2023-04-21T04:16:29.096Z,100.00
2023-04-21T04:18:57.384Z,100.00
2023-04-21T04:21:25.120Z,100.00
2023-04-21T04:23:53.381Z,100.00
2023-04-21T04:26:22.684Z,100.00
2023-04-21T04:28:50.677Z,100.00
2023-04-21T04:31:18.485Z,100.00
2023-04-21T04:33:47.646Z,100.00
2023-04-21T04:36:15.399Z,100.00
2023-04-21T04:38:43.147Z,100.00
2023-04-21T04:41:12.814Z,100.00
2023-04-21T04:43:40.550Z,100.00
2023-04-21T04:46:09.484Z,100.00
2023-04-21T04:48:37.341Z,100.00
2023-04-21T04:51:07.783Z,100.00
2023-04-21T04:53:35.795Z,100.00
2023-04-21T04:56:03.628Z,100.00
2023-04-21T04:58:31.379Z,100.00
2023-04-21T05:00:59.136Z,100.00
2023-04-21T05:03:27.035Z,100.00
2023-04-21T05:05:56.380Z,100.00
2023-04-21T05:08:25.498Z,100.00
2023-04-21T05:10:53.339Z,100.00
2023-04-21T05:13:21.063Z,100.00
2023-04-21T05:15:48.798Z,100.00
2023-04-21T05:18:16.713Z,100.00
2023-04-21T05:20:44.449Z,100.00
2023-04-21T05:23:12.188Z,100.00
2023-04-21T05:25:41.362Z,100.00
2023-04-21T05:28:09.119Z,100.00
2023-04-21T05:30:36.966Z,100.00
2023-04-21T05:33:04.912Z,100.00
2023-04-21T05:35:32.746Z,100.00
2023-04-21T05:38:00.556Z,100.00
2023-04-21T05:40:28.357Z,100.00
2023-04-21T05:42:57.494Z,100.00
2023-04-21T05:45:25.912Z,100.00
2023-04-21T05:47:53.795Z,100.00
2023-04-21T05:50:21.595Z,100.00
2023-04-21T05:52:49.363Z,100.00
2023-04-21T05:55:17.260Z,100.00
2023-04-21T05:57:45.012Z,100.00
2023-04-21T06:00:16.076Z,100.00
2023-04-21T06:02:44.082Z,100.00
2023-04-21T06:05:12.145Z,100.00
2023-04-21T06:07:40.036Z,100.00
2023-04-21T06:10:09.209Z,100.00
2023-04-21T06:12:36.949Z,100.00
2023-04-21T06:15:05.146Z,100.00
2023-04-21T06:17:34.379Z,100.00
2023-04-21T06:20:02.228Z,100.00
2023-04-21T06:22:29.970Z,96.24
2023-04-21T06:24:59.502Z,95.81
2023-04-21T06:27:28.571Z,94.73
2023-04-21T06:29:56.867Z,93.04
2023-04-21T06:32:24.712Z,93.68
2023-04-21T06:34:54.018Z,94.50
2023-04-21T06:37:21.763Z,92.58
2023-04-21T06:39:49.570Z,92.84
2023-04-21T06:42:17.721Z,90.75
2023-04-21T06:44:45.563Z,90.38
2023-04-21T06:47:13.474Z,89.17
2023-04-21T06:49:41.291Z,90.16
2023-04-21T06:52:10.390Z,90.20
2023-04-21T06:54:38.389Z,88.92
2023-04-21T06:57:06.728Z,89.32
2023-04-21T06:59:34.930Z,88.24
2023-04-21T07:02:02.837Z,90.03
2023-04-21T07:04:32.337Z,86.45
2023-04-21T07:07:02.509Z,85.73
2023-04-21T07:09:33.849Z,86.34
2023-04-21T07:12:03.008Z,83.79
2023-04-21T07:14:30.891Z,84.17
2023-04-21T07:16:58.754Z,84.61
2023-04-21T07:19:26.996Z,83.25
2023-04-21T07:21:54.842Z,80.76
2023-04-21T07:24:22.582Z,79.61
2023-04-21T07:26:51.838Z,77.84
2023-04-21T07:29:20.052Z,76.43
2023-04-21T07:31:48.356Z,76.16
2023-04-21T07:34:16.363Z,76.99
2023-04-21T07:36:44.297Z,75.18
2023-04-21T07:39:12.132Z,74.69
2023-04-21T07:41:39.901Z,75.97
2023-04-21T07:44:09.091Z,74.68
2023-04-21T07:46:36.878Z,74.76
2023-04-21T07:49:04.736Z,75.26
2023-04-21T07:51:33.024Z,73.70
2023-04-21T07:54:00.794Z,73.77
2023-04-21T07:56:28.592Z,73.92
2023-04-21T07:58:56.397Z,72.60
2023-04-21T08:01:25.617Z,71.40
2023-04-21T08:03:53.459Z,71.27
2023-04-21T08:06:21.566Z,70.67
2023-04-21T08:08:50.250Z,70.84
2023-04-21T08:11:18.121Z,69.41
2023-04-21T08:13:46.301Z,70.47
2023-04-21T08:16:14.187Z,69.92
2023-04-21T08:18:43.394Z,70.60
2023-04-21T08:21:11.231Z,69.90
2023-04-21T08:23:38.995Z,71.59
2023-04-21T08:26:07.292Z,69.97
2023-04-21T08:28:35.150Z,67.86
2023-04-21T08:31:03.163Z,68.19
2023-04-21T08:33:31.191Z,68.31
2023-04-21T08:36:07.524Z,68.43
2023-04-21T08:38:38.813Z,68.61
2023-04-21T08:41:06.817Z,67.17
2023-04-21T08:43:34.567Z,66.60
2023-04-21T08:46:06.663Z,63.48
2023-04-21T08:48:37.261Z,64.79
2023-04-21T08:51:09.772Z,65.04
2023-04-21T08:53:37.710Z,64.62
2023-04-21T08:58:36.781Z,62.72
2023-04-21T09:01:04.702Z,61.38
2023-04-21T09:03:32.703Z,63.72
2023-04-21T09:06:02.586Z,61.66
2023-04-21T09:08:32.549Z,61.49
2023-04-21T09:11:01.599Z,60.72
2023-04-21T09:13:34.087Z,61.72
2023-04-21T09:16:04.270Z,61.03
2023-04-21T09:18:35.974Z,59.37
2023-04-21T09:21:09.440Z,58.52
2023-04-21T09:23:43.594Z,60.04
2023-04-21T09:26:12.173Z,58.85
2023-04-21T09:28:43.232Z,59.00
2023-04-21T09:31:17.312Z,58.63
2023-04-21T09:36:22.001Z,57.77
2023-04-21T09:41:34.900Z,57.61
2023-04-21T09:44:04.710Z,56.85
2023-04-21T09:46:35.159Z,57.49
2023-04-21T09:49:03.476Z,59.14
2023-04-21T09:51:56.280Z,55.77
2023-04-21T09:56:57.666Z,55.18
2023-04-21T09:59:28.240Z,53.91
2023-04-21T10:01:58.493Z,54.89
2023-04-21T10:04:27.339Z,52.17
2023-04-21T10:06:55.796Z,49.81
2023-04-21T10:09:28.545Z,50.88
2023-04-21T10:11:57.785Z,51.60
2023-04-21T10:14:26.467Z,51.97
2023-04-21T10:16:57.969Z,50.54
2023-04-21T10:19:27.224Z,49.59
2023-04-21T10:21:57.511Z,47.15
2023-04-21T10:24:29.856Z,48.05
2023-04-21T10:27:01.710Z,48.18
2023-04-21T10:29:37.468Z,46.27
2023-04-21T10:32:11.935Z,46.23
2023-04-21T10:34:40.050Z,46.63
2023-04-21T10:37:15.609Z,43.56
2023-04-21T10:39:55.801Z,46.04
2023-04-21T10:42:29.460Z,43.82
2023-04-21T10:45:11.681Z,44.09
2023-04-21T10:47:42.963Z,44.06
2023-04-21T10:50:25.806Z,42.84
2023-04-21T10:52:56.844Z,42.60
2023-04-21T10:55:30.131Z,44.42
2023-04-21T10:57:59.173Z,43.00
2023-04-21T11:00:27.400Z,43.34
2023-04-21T11:03:01.165Z,41.75
2023-04-21T11:05:36.333Z,41.79
2023-04-21T11:08:14.069Z,42.00
2023-04-21T11:10:55.088Z,40.17
2023-04-21T11:13:24.151Z,41.91
2023-04-21T11:16:02.548Z,42.27
2023-04-21T11:18:41.401Z,41.84
2023-04-21T11:21:15.923Z,41.21
2023-04-21T11:23:49.971Z,41.09
2023-04-21T11:26:30.435Z,40.75
2023-04-21T11:29:01.432Z,40.35
2023-04-21T11:31:30.313Z,39.54
2023-04-21T11:33:59.512Z,39.09
2023-04-21T11:36:27.440Z,39.73
2023-04-21T11:38:55.353Z,40.76
2023-04-21T11:41:25.934Z,40.81
2023-04-21T11:43:53.886Z,40.37
2023-04-21T11:46:25.176Z,40.35
2023-04-21T11:49:00.365Z,38.04
2023-04-21T11:51:29.050Z,38.42
2023-04-21T11:53:56.856Z,39.37
2023-04-21T11:56:26.045Z,40.11
2023-04-21T11:58:54.573Z,39.38
2023-04-21T12:01:23.018Z,38.66
2023-04-21T12:03:55.160Z,38.71
2023-04-21T12:06:24.681Z,37.99
2023-04-21T12:09:02.423Z,38.46
2023-04-21T12:11:32.839Z,39.23
2023-04-21T12:14:00.916Z,38.22
2023-04-21T12:16:30.124Z,39.25
2023-04-21T12:18:58.402Z,38.79
2023-04-21T12:21:28.979Z,37.49
2023-04-21T12:23:57.778Z,37.85
2023-04-21T12:26:25.680Z,38.48
2023-04-21T12:28:55.875Z,38.24
2023-04-21T12:31:23.752Z,38.62
2023-04-21T12:33:51.682Z,37.72
2023-04-21T12:36:19.488Z,37.59
2023-04-21T12:38:47.405Z,37.87
2023-04-21T12:41:15.236Z,37.01
2023-04-21T12:43:43.091Z,38.10
2023-04-21T12:46:12.292Z,36.92
2023-04-21T12:48:40.230Z,37.43
2023-04-21T12:51:08.439Z,39.22
2023-04-21T12:53:36.781Z,38.24
2023-04-21T12:56:05.742Z,38.66
2023-04-21T12:58:33.843Z,38.09
2023-04-21T13:01:01.738Z,39.39
2023-04-21T13:03:31.021Z,38.16
2023-04-21T13:05:59.069Z,38.51
2023-04-21T13:08:26.964Z,38.07
2023-04-21T13:10:55.462Z,40.31
2023-04-21T13:13:23.396Z,38.56
2023-04-21T13:15:51.430Z,39.93
2023-04-21T13:18:19.449Z,40.10
2023-04-21T13:20:48.628Z,39.92
2023-04-21T13:23:16.532Z,40.35
2023-04-21T13:25:44.880Z,41.61
2023-04-21T13:28:13.902Z,41.41
2023-04-21T13:30:41.921Z,41.18
2023-04-21T13:33:09.927Z,42.17
2023-04-21T13:35:38.441Z,40.52
2023-04-21T13:38:07.747Z,40.29
2023-04-21T13:40:35.679Z,40.09
2023-04-21T13:43:03.449Z,40.53
2023-04-21T13:45:31.330Z,40.04
2023-04-21T13:47:59.419Z,41.70
2023-04-21T13:50:27.378Z,39.74
2023-04-21T13:52:55.168Z,42.43
2023-04-21T13:55:24.448Z,41.19
2023-04-21T13:57:52.619Z,41.04
2023-04-21T14:00:21.575Z,42.99
2023-04-21T14:02:49.838Z,42.22
2023-04-21T14:05:18.568Z,41.14
2023-04-21T14:07:46.611Z,42.42
2023-04-21T14:10:14.429Z,43.63
2023-04-21T14:12:44.987Z,43.88
2023-04-21T14:15:13.426Z,44.16
2023-04-21T14:17:41.478Z,45.18
2023-04-21T14:20:10.408Z,43.65
2023-04-21T14:22:38.379Z,44.06
2023-04-21T14:25:06.835Z,44.91
2023-04-21T14:27:34.662Z,44.82
2023-04-21T14:30:03.913Z,45.00
2023-04-21T14:32:31.895Z,44.95
2023-04-21T14:35:03.376Z,44.73
2023-04-21T14:37:31.490Z,44.64
2023-04-21T14:39:59.276Z,45.71
2023-04-21T14:42:27.192Z,45.28
2023-04-21T14:44:55.023Z,46.87
2023-04-21T14:47:24.233Z,45.61
2023-04-21T14:49:54.665Z,44.64
2023-04-21T14:52:25.833Z,44.75
2023-04-21T14:54:53.904Z,43.83
2023-04-21T14:57:22.674Z,44.33
2023-04-21T14:59:51.662Z,44.27
2023-04-21T15:02:20.991Z,44.73
2023-04-21T15:04:50.952Z,44.13
2023-04-21T15:07:23.897Z,44.90
2023-04-21T15:09:52.935Z,44.90
2023-04-21T15:12:20.852Z,44.28
2023-04-21T15:14:48.630Z,44.33
2023-04-21T15:17:16.482Z,44.08
2023-04-21T15:19:44.250Z,43.96
2023-04-21T15:22:15.128Z,44.62
2023-04-21T15:24:43.202Z,44.38
2023-04-21T15:27:10.997Z,44.71
2023-04-21T15:29:38.802Z,44.82
2023-04-21T15:32:06.695Z,44.14
2023-04-21T15:34:34.450Z,43.39
2023-04-21T15:37:02.468Z,42.60
2023-04-21T15:39:31.728Z,43.46
2023-04-21T15:42:00.186Z,43.89
2023-04-21T15:44:28.067Z,44.23
2023-04-21T15:46:56.026Z,44.00
2023-04-21T15:49:33.052Z,43.90
2023-04-21T15:52:02.898Z,44.67
2023-04-21T15:54:34.135Z,44.21
2023-04-21T15:57:02.604Z,44.13
2023-04-21T15:59:31.037Z,44.40
2023-04-21T16:01:59.097Z,44.32
2023-04-21T16:04:27.171Z,44.58
2023-04-21T16:06:55.174Z,44.42
2023-04-21T16:09:23.637Z,43.97
2023-04-21T16:11:52.943Z,44.16
2023-04-21T16:14:20.914Z,43.81
2023-04-21T16:16:48.826Z,43.88
2023-04-21T16:19:17.385Z,44.03
2023-04-21T16:21:45.253Z,44.36
2023-04-21T16:24:13.188Z,45.13
2023-04-21T16:26:41.385Z,44.56
2023-04-21T16:29:10.572Z,45.42
2023-04-21T16:31:39.215Z,45.18
2023-04-21T16:34:07.441Z,45.17
2023-04-21T16:36:35.372Z,45.88
2023-04-21T16:39:03.299Z,44.93
2023-04-21T16:41:31.408Z,45.33
2023-04-21T16:43:59.264Z,45.15
2023-04-21T16:46:28.778Z,45.52
2023-04-21T16:48:56.774Z,45.44
2023-04-21T16:51:26.126Z,45.66
2023-04-21T16:53:54.685Z,45.34
2023-04-21T16:56:22.613Z,45.82
2023-04-21T16:58:50.410Z,45.91
2023-04-21T17:01:18.251Z,45.17
2023-04-21T17:03:47.466Z,45.78
2023-04-21T17:06:19.465Z,45.93
2023-04-21T17:08:47.275Z,46.24
2023-04-21T17:11:15.078Z,45.87
2023-04-21T17:13:42.827Z,46.07
2023-04-21T17:16:10.722Z,46.32
2023-04-21T17:18:38.572Z,46.58
2023-04-21T17:21:07.690Z,46.95
2023-04-21T17:23:35.513Z,46.78
2023-04-21T17:26:05.098Z,46.55
2023-04-21T17:28:33.623Z,46.47
2023-04-21T17:31:14.354Z,46.07
2023-04-21T17:33:43.574Z,46.67
2023-04-21T17:36:12.909Z,46.73
2023-04-21T17:38:42.601Z,48.00
2023-04-21T17:41:10.701Z,47.70
2023-04-21T17:43:38.512Z,47.77
2023-04-21T17:46:06.987Z,48.38
2023-04-21T17:48:35.071Z,47.89
2023-04-21T17:51:03.993Z,48.05
2023-04-21T17:53:33.263Z,48.45
2023-04-21T17:56:01.160Z,48.09
2023-04-21T17:58:29.480Z,49.13
2023-04-21T18:00:57.326Z,49.35
2023-04-21T18:03:25.313Z,49.59
2023-04-21T18:05:53.295Z,50.66
2023-04-21T18:08:21.784Z,50.66
2023-04-21T18:10:51.152Z,50.80
2023-04-21T18:13:18.937Z,50.25
2023-04-21T18:15:46.792Z,50.54
2023-04-21T18:18:15.110Z,50.72
2023-04-21T18:20:43.012Z,50.80
2023-04-21T18:23:10.767Z,50.64
2023-04-21T18:25:42.020Z,50.74
2023-04-21T18:28:13.134Z,50.86
2023-04-21T18:30:41.424Z,50.82
2023-04-21T18:33:09.618Z,50.85
2023-04-21T18:35:37.553Z,51.49
2023-04-21T18:38:07.817Z,51.18
2023-04-21T18:40:37.144Z,51.93
2023-04-21T18:43:05.345Z,51.59
2023-04-21T18:45:35.043Z,51.75
2023-04-21T18:48:02.909Z,52.67
2023-04-21T18:50:32.359Z,52.00
2023-04-21T18:53:00.552Z,52.41
2023-04-21T18:55:28.401Z,51.99
2023-04-21T18:57:56.227Z,51.73
2023-04-21T19:00:24.097Z,51.98
2023-04-21T19:02:53.613Z,52.25
2023-04-21T19:05:21.669Z,52.35
2023-04-21T19:07:49.433Z,52.71
2023-04-21T19:10:17.379Z,52.56
2023-04-21T19:12:45.230Z,53.53
2023-04-21T19:15:13.276Z,53.18
2023-04-21T19:17:41.703Z,54.15
2023-04-21T19:20:12.305Z,53.83
2023-04-21T19:22:41.247Z,53.95
2023-04-21T19:25:09.770Z,54.42
2023-04-21T19:27:37.697Z,54.85
2023-04-21T19:30:06.668Z,54.79
2023-04-21T19:32:34.546Z,54.84
2023-04-21T19:35:02.729Z,55.05
2023-04-21T19:37:34.489Z,54.93
2023-04-21T19:40:03.331Z,55.27
2023-04-21T19:42:31.496Z,55.55
2023-04-21T19:45:03.815Z,55.86
2023-04-21T19:47:36.185Z,55.91
2023-04-21T19:50:04.101Z,56.30
2023-04-21T19:52:33.314Z,56.42
2023-04-21T19:55:01.532Z,56.35
2023-04-21T19:57:29.782Z,56.96
2023-04-21T19:59:57.612Z,57.27
2023-04-21T20:02:26.251Z,57.93
2023-04-21T20:04:54.488Z,58.52
2023-04-21T20:07:22.775Z,58.88
2023-04-21T20:09:51.879Z,59.86
2023-04-21T20:12:19.840Z,60.29
2023-04-21T20:14:47.680Z,61.12
2023-04-21T20:17:15.510Z,62.59
2023-04-21T20:19:43.268Z,63.29
2023-04-21T20:22:11.133Z,63.58
2023-04-21T20:24:38.903Z,65.05
2023-04-21T20:27:08.969Z,65.77
2023-04-21T20:29:37.065Z,65.65
2023-04-21T20:32:05.122Z,66.32
2023-04-21T20:34:32.969Z,66.20
2023-04-21T20:37:02.041Z,66.46
2023-04-21T20:39:30.191Z,66.23
2023-04-21T20:42:11.977Z,66.22
2023-04-21T20:44:43.401Z,65.89
2023-04-21T20:47:12.081Z,65.86
2023-04-21T20:49:40.382Z,66.65
2023-04-21T20:52:08.491Z,67.51
2023-04-21T20:54:36.487Z,67.57
2023-04-21T20:57:04.568Z,67.96
2023-04-21T20:59:32.438Z,68.19
2023-04-21T21:02:01.701Z,68.44
2023-04-21T21:04:29.612Z,69.02
2023-04-21T21:06:57.896Z,68.70
2023-04-21T21:09:25.817Z,69.73
2023-04-21T21:11:53.618Z,70.21
2023-04-21T21:14:21.802Z,71.59
2023-04-21T21:16:49.844Z,72.76
2023-04-21T21:19:19.015Z,73.66
2023-04-21T21:21:46.896Z,73.88
2023-04-21T21:24:14.694Z,74.41
2023-04-21T21:26:42.926Z,74.36
2023-04-21T21:29:10.821Z,74.46
2023-04-21T21:31:38.665Z,74.31
2023-04-21T21:34:06.440Z,74.91
2023-04-21T21:36:36.118Z,75.90
2023-04-21T21:39:03.918Z,76.13
2023-04-21T21:41:31.677Z,76.64
2023-04-21T21:43:59.463Z,77.55
2023-04-21T21:46:27.292Z,78.20
2023-04-21T21:48:55.103Z,79.07
2023-04-21T21:51:22.919Z,79.54
2023-04-21T21:53:52.046Z,80.74
2023-04-21T21:56:20.016Z,80.58
2023-04-21T21:58:48.091Z,80.36
2023-04-21T22:01:18.235Z,81.02
2023-04-21T22:03:47.278Z,81.64
2023-04-21T22:06:17.190Z,81.90
2023-04-21T22:08:45.678Z,82.02
2023-04-21T22:11:14.839Z,83.09
2023-04-21T22:13:42.656Z,84.24
2023-04-21T22:16:10.576Z,84.05
2023-04-21T22:18:38.420Z,83.67
2023-04-21T22:21:06.291Z,84.60
2023-04-21T22:23:34.121Z,84.69
2023-04-21T22:26:01.875Z,84.92
2023-04-21T22:28:31.097Z,84.70
2023-04-21T22:30:58.983Z,84.84
2023-04-21T22:33:26.793Z,84.69
2023-04-21T22:35:54.566Z,84.57
2023-04-21T22:38:22.305Z,85.37
2023-04-21T22:40:50.127Z,85.48
2023-04-21T22:43:17.991Z,85.84
2023-04-21T22:45:47.114Z,86.22
2023-04-21T22:48:15.063Z,86.31
2023-04-21T22:50:44.799Z,87.08
2023-04-21T22:53:13.348Z,88.04
2023-04-21T22:55:41.142Z,88.88
2023-04-21T22:58:09.152Z,89.74
2023-04-21T23:00:37.065Z,90.56
2023-04-21T23:03:06.435Z,90.95
2023-04-21T23:05:34.446Z,90.82
2023-04-21T23:08:02.216Z,91.72
2023-04-21T23:10:30.470Z,92.61
2023-04-21T23:12:58.450Z,93.09
2023-04-21T23:15:26.838Z,92.91
2023-04-21T23:17:54.673Z,93.99
2023-04-21T23:20:24.001Z,94.14
2023-04-21T23:22:52.232Z,94.22
2023-04-21T23:25:20.762Z,94.90
2023-04-21T23:27:48.554Z,95.48
2023-04-21T23:30:16.604Z,96.14
2023-04-21T23:32:44.958Z,96.96
2023-04-21T23:35:12.866Z,97.86
2023-04-21T23:37:42.005Z,98.48
2023-04-21T23:40:12.574Z,98.29
2023-04-21T23:42:40.738Z,99.60
2023-04-21T23:45:09.567Z,100.00
2023-04-21T23:47:37.396Z,100.00
2023-04-21T23:50:06.177Z,100.00
2023-04-21T23:52:34.090Z,100.00
2023-04-21T23:55:03.250Z,100.00
2023-04-21T23:57:31.102Z,100.00
2023-04-21T23:59:58.874Z,100.00
